EGGD

Bristol International Airport

Bristol, United Kingdom
METAR EGGD 210550Z AUTO 09006KT 4100 BR BKN003 OVC015 02/01 Q1005
Observed Flight Rules
Nov-21 @ 05:50 UTC (14 minutes ago) Instrument Flight Rules
Wind Visibility Clouds Conditions
90° at 6 knots 4,104 meters
  • Broken at 300' AGL
  • Overcast at 1,500' AGL
  • Mist
Temperatures Readings
Current 2°C / 36°F
Dewpoint 1°C / 34°F
Humidity 93%
Altimeter 29.68" Hg
Pressure 1005 hPa
Elevation 189
METAR EGGD 210550Z AUTO 09006KT 4100 BR BKN003 OVC015 02/01 Q1005
Observed Flight Rules
Nov-21 @ 05:50 UTC
(14 minutes ago)
LIFR
Wind Visibility
90° at 6 knots 4,104 meters
Clouds
  • Broken at 300' AGL
  • Overcast at 1,500' AGL
Conditions
  • Mist
Temperature Dewpoint
2°C / 36°F 1°C / 34°F
Humidity Altimeter Pressure
93% 29.68" Hg 1005 hPa